Arapahoe, NC

11:00 PM EDT on April 25, 2015 (GMT -0400)
Craven County Regional | | Change Station
CLOSE
Current Station
Airport
Location: New Bern,
Elevation: 16 ft
Nearby Weather Stations

Elev 16 ft 35.07 °N, 77.05 °W | Updated 6 minutes ago

Overcast
Overcast
60 °F
Feels Like 60 °F
N
6
Wind Variable Wind from NNE

Today
High -- | Low -- °F
--% Chance of Precip.
Yesterday
High -- | Low -- °F
Precip. -- in
6:23 AM 7:47 PM
Waxing Crescent, 51% visible
Pressure 29.61 in
Visibility 10.0 miles
Clouds Overcast 1000 ft
Dew Point 57 °F
Humidity 90%
Rainfall 0.02 in
Snow Depth Not available.
UV 0 out of 12
Pollen 7.00 out of 12
Air Quality Not available.
Flu Activity Sporadic
METAR KEWN 260254Z AUTO 03005KT 10SM OVC010 16/14 A2961 RMK AO2 RAB20E34 SLP026 P0000 60000 T01560139 56017

More Conditions Fewer Conditions

Pressure 29.61 in
Visibility 10.0 miles
Clouds Overcast 1000 ft
Dew Point 57 °F
Humidity 90%
Rainfall 0.02 in
Snow Depth Not available.
UV 0 out of 12
Pollen 7.00 out of 12
Air Quality Not available.
Flu Activity Sporadic
METAR KEWN 260254Z AUTO 03005KT 10SM OVC010 16/14 A2961 RMK AO2 RAB20E34 SLP026 P0000 60000 T01560139 56017

More Conditions Fewer Conditions

10-Day Weather Forecast

Almanac

Astronomy

Apr. 25, 2015 Rise Set
Actual Time
Civil Twilight
Nautical Twilight
Astronomical Twilight
Moon
Length of Visible Light
Length of Day
Tomorrow will be .
, % of the Moon is Illuminated

Today's Extremes

State Highs State Lows

Community

WunderPhotos

Upload Photos

1,816,916 photos uploaded!

WunderBlogs® & News

Nearby

Air Quality

  Air Quality AQ Index Pollutant
Not available.

Snow Depth

Station Depth Elevation

Earthquake Activity

City Distance Mag. Time & Date
Minimum magnitude displayed is 2.5.

Coastal Water Temperatures

Place Temperature

Stations

Nearby Weather Stations

Station Location Temp. Windchill Dew Point Humidity Wind Precip. Elev Updated Type